Terminal Aerodrome Forecast
Issued by NWS Wilmington, OH

Home | Current Version | Previous Version | Text Only | Print | Product List | Glossary On
Versions: 1 2 3 4 5 6 7 8 9 10 11 12 13 14 15 16 17 18 19 20 21 22 23 24 25 26 27 28
000
FTUS41 KILN 301330 AAA
TAFCMH
TAF AMD
KCMH 301330Z 3014/3112 19003KT P6SM BKN020
     FM301500 23005KT P6SM FEW015 SCT025
     FM301700 24006KT P6SM VCTS SCT035CB BKN250
      TEMPO 3020/3024 3SM -TSRA BR OVC035CB
     FM310200 24002KT P6SM FEW040=

USA.gov is the U.S. government's official web portal to all federal, state and local government web resources and services.